createdAt,value
2019-04-27T00:04:11.670Z,79.20
2019-04-27T00:09:36.911Z,77.40
2019-04-27T00:14:43.809Z,74.70
2019-04-27T00:19:50.327Z,75.60
2019-04-27T00:24:55.391Z,76.20
2019-04-27T00:30:00.617Z,77.30
2019-04-27T00:35:06.551Z,78.50
2019-04-27T00:40:16.539Z,82.30
2019-04-27T00:45:23.415Z,84.30
2019-04-27T00:50:29.739Z,87.20
2019-04-27T00:55:36.639Z,88.60
2019-04-27T01:00:43.996Z,88.80
2019-04-27T01:05:49.378Z,88.50
2019-04-27T01:10:54.498Z,88.40
2019-04-27T01:15:59.483Z,88.60
2019-04-27T01:21:04.671Z,88.60
2019-04-27T01:26:28.672Z,88.70
2019-04-27T01:31:33.818Z,89.10
2019-04-27T01:36:39.238Z,88.80
2019-04-27T01:41:44.308Z,89.00
2019-04-27T01:46:49.539Z,89.10
2019-04-27T01:51:54.667Z,88.90
2019-04-27T01:57:00.999Z,89.40
2019-04-27T02:02:24.368Z,89.60
2019-04-27T02:07:30.085Z,89.40
2019-04-27T02:12:35.115Z,89.70
2019-04-27T02:17:40.066Z,89.70
2019-04-27T02:22:45.267Z,89.90
2019-04-27T02:27:56.275Z,89.90
2019-04-27T02:33:20.299Z,90.00
2019-04-27T02:38:25.536Z,90.00
2019-04-27T02:43:35.003Z,90.20
2019-04-27T02:48:55.528Z,90.20
2019-04-27T02:54:00.518Z,90.40
2019-04-27T02:59:05.670Z,90.40
2019-04-27T03:04:10.979Z,90.50
2019-04-27T03:09:16.247Z,90.50
2019-04-27T03:14:36.413Z,90.50
2019-04-27T03:19:46.407Z,90.50
2019-04-27T03:25:14.947Z,90.40
2019-04-27T03:30:22.512Z,90.50
2019-04-27T03:35:24.699Z,90.40
2019-04-27T03:40:30.694Z,90.30
2019-04-27T03:45:36.039Z,90.20
2019-04-27T03:50:43.064Z,90.10
2019-04-27T03:55:50.223Z,90.00
2019-04-27T04:00:55.371Z,90.00
2019-04-27T04:06:00.535Z,89.70
2019-04-27T04:11:19.875Z,90.00
2019-04-27T04:16:29.490Z,90.10
2019-04-27T04:21:34.410Z,90.20
2019-04-27T04:26:40.178Z,90.20
2019-04-27T04:31:45.831Z,90.20
2019-04-27T04:36:50.884Z,89.90
2019-04-27T04:41:59.732Z,89.70
2019-04-27T04:47:11.423Z,89.20
2019-04-27T04:52:16.559Z,89.30
2019-04-27T04:57:21.889Z,89.30
2019-04-27T05:02:29.221Z,89.00
2019-04-27T05:07:33.707Z,88.40
2019-04-27T05:12:38.798Z,87.80
2019-04-27T05:17:43.865Z,87.60
2019-04-27T05:22:49.209Z,87.30
2019-04-27T05:27:54.209Z,87.50
2019-04-27T05:32:59.227Z,86.90
2019-04-27T05:38:07.419Z,87.40
2019-04-27T05:43:12.570Z,87.40
2019-04-27T05:48:27.444Z,87.40
2019-04-27T05:53:25.939Z,87.40
2019-04-27T05:58:31.064Z,87.00
2019-04-27T06:03:36.122Z,86.70
2019-04-27T06:08:41.171Z,87.70
2019-04-27T06:13:46.202Z,86.40
2019-04-27T06:18:51.158Z,87.10
2019-04-27T06:23:56.239Z,86.30
2019-04-27T06:29:01.358Z,86.50
2019-04-27T06:34:06.391Z,86.40
2019-04-27T06:39:11.338Z,85.70
2019-04-27T06:44:16.363Z,85.30
2019-04-27T06:49:21.552Z,85.60
2019-04-27T06:54:28.902Z,86.10
2019-04-27T06:59:33.995Z,87.00
2019-04-27T07:04:39.210Z,88.00
2019-04-27T07:09:44.215Z,88.40
2019-04-27T07:14:54.436Z,87.80
2019-04-27T07:19:55.934Z,87.50
2019-04-27T07:25:00.918Z,88.50
2019-04-27T07:30:11.464Z,87.90
2019-04-27T07:35:13.955Z,88.70
2019-04-27T07:40:18.972Z,89.40
2019-04-27T07:45:31.580Z,87.70
2019-04-27T07:50:36.771Z,88.00
2019-04-27T07:55:41.787Z,86.40
2019-04-27T08:00:46.983Z,86.00
2019-04-27T08:05:52.147Z,86.50
2019-04-27T08:10:59.568Z,86.60
2019-04-27T08:16:04.683Z,86.40
2019-04-27T08:21:09.802Z,86.10
2019-04-27T08:26:16.501Z,86.40
2019-04-27T08:31:26.147Z,86.30
2019-04-27T08:36:31.091Z,86.40
2019-04-27T08:41:36.148Z,86.90
2019-04-27T08:46:41.100Z,86.10
2019-04-27T08:51:56.305Z,86.70
2019-04-27T08:56:53.921Z,87.30
2019-04-27T09:01:58.929Z,87.10
2019-04-27T09:07:23.884Z,86.80
2019-04-27T09:12:45.809Z,86.60
2019-04-27T09:17:52.419Z,86.00
2019-04-27T09:22:59.188Z,86.50
2019-04-27T09:28:04.206Z,85.70
2019-04-27T09:33:10.310Z,85.60
2019-04-27T09:38:16.723Z,85.80
2019-04-27T09:43:21.943Z,84.50
2019-04-27T09:48:26.892Z,84.70
2019-04-27T09:53:31.931Z,83.90
2019-04-27T09:58:37.048Z,84.10
2019-04-27T10:03:42.096Z,84.40
2019-04-27T10:08:47.071Z,84.80
2019-04-27T10:13:52.019Z,85.30
2019-04-27T10:18:57.002Z,85.40
2019-04-27T10:24:01.951Z,85.70
2019-04-27T10:29:07.069Z,85.20
2019-04-27T10:34:12.019Z,85.50
2019-04-27T10:39:17.130Z,85.00
2019-04-27T10:44:22.030Z,85.50
2019-04-27T10:49:27.163Z,85.80
2019-04-27T10:54:32.215Z,85.20
2019-04-27T10:59:37.263Z,85.40
2019-04-27T11:04:56.609Z,85.20
2019-04-27T11:10:01.672Z,84.80
2019-04-27T11:15:08.632Z,83.70
2019-04-27T11:20:14.518Z,83.40
2019-04-27T11:25:19.710Z,82.50
2019-04-27T11:30:24.971Z,82.00
2019-04-27T11:35:40.823Z,79.90
2019-04-27T11:40:46.620Z,79.70
2019-04-27T11:45:51.767Z,79.10
2019-04-27T11:50:56.774Z,78.80
2019-04-27T11:56:01.939Z,79.90
2019-04-27T12:01:08.523Z,79.00
2019-04-27T12:06:13.607Z,78.00
2019-04-27T12:11:18.732Z,77.90
2019-04-27T12:16:23.859Z,79.10
2019-04-27T12:21:28.887Z,79.60
2019-04-27T12:26:36.295Z,79.20
2019-04-27T12:31:46.532Z,78.50
2019-04-27T12:36:53.075Z,79.10
2019-04-27T12:41:56.899Z,78.80
2019-04-27T12:47:02.732Z,78.90
2019-04-27T12:52:07.894Z,79.10
2019-04-27T12:57:26.744Z,78.40
2019-04-27T13:02:35.568Z,76.00
2019-04-27T13:07:41.663Z,75.90
2019-04-27T13:12:46.804Z,76.60
2019-04-27T13:17:51.916Z,76.00
2019-04-27T13:22:57.039Z,75.80
2019-04-27T13:28:02.152Z,76.50
2019-04-27T13:33:07.332Z,76.80
2019-04-27T13:38:12.519Z,77.60
2019-04-27T13:43:59.936Z,77.40
2019-04-27T13:49:17.648Z,78.00
2019-04-27T13:54:26.347Z,78.10
2019-04-27T13:59:28.955Z,78.30
2019-04-27T14:04:34.068Z,79.10
2019-04-27T14:09:39.286Z,78.60
2019-04-27T14:14:44.343Z,79.10
2019-04-27T14:19:49.440Z,77.50
2019-04-27T14:24:54.479Z,77.20
2019-04-27T14:29:59.632Z,76.50
2019-04-27T14:35:08.284Z,77.20
2019-04-27T14:40:13.180Z,78.00
2019-04-27T14:45:18.889Z,78.50
2019-04-27T14:50:24.078Z,77.60
2019-04-27T14:55:30.133Z,77.40
2019-04-27T15:00:35.317Z,77.00
2019-04-27T15:05:40.371Z,76.80
2019-04-27T15:10:46.405Z,76.20
2019-04-27T15:15:51.551Z,74.90
2019-04-27T15:20:58.508Z,75.40
2019-04-27T15:26:03.450Z,75.30
2019-04-27T15:31:29.454Z,74.50
2019-04-27T15:36:45.439Z,75.10
2019-04-27T15:42:07.476Z,73.10
2019-04-27T15:47:11.724Z,70.70
2019-04-27T15:52:14.328Z,69.20
2019-04-27T15:57:20.880Z,70.80
2019-04-27T16:02:25.987Z,71.70
2019-04-27T16:07:32.242Z,72.00
2019-04-27T16:12:38.973Z,72.10
2019-04-27T16:17:50.926Z,72.00
2019-04-27T16:22:50.676Z,70.60
2019-04-27T16:27:55.615Z,70.20
2019-04-27T16:33:00.826Z,70.90
2019-04-27T16:38:19.575Z,71.50
2019-04-27T16:43:30.045Z,71.50
2019-04-27T16:48:34.669Z,70.90
2019-04-27T16:53:40.975Z,68.90
2019-04-27T16:58:49.019Z,69.20
2019-04-27T17:03:52.890Z,68.30
2019-04-27T17:09:05.750Z,67.50
2019-04-27T17:14:09.026Z,69.10
2019-04-27T17:19:18.818Z,65.80
2019-04-27T17:24:42.265Z,63.20
2019-04-27T17:29:43.175Z,63.00
2019-04-27T17:34:48.839Z,61.40
2019-04-27T17:39:59.496Z,61.70
2019-04-27T17:45:00.743Z,65.30
2019-04-27T17:50:09.303Z,69.20
2019-04-27T17:55:17.783Z,71.80
2019-04-27T18:00:22.612Z,75.00
2019-04-27T18:05:28.555Z,75.20
2019-04-27T18:10:33.723Z,76.40
2019-04-27T18:15:38.921Z,79.10
2019-04-27T18:20:45.075Z,78.60
2019-04-27T18:26:00.628Z,82.00
2019-04-27T18:31:07.451Z,79.50
2019-04-27T18:36:14.380Z,77.80
2019-04-27T18:41:19.620Z,77.60
2019-04-27T18:46:24.939Z,77.10
2019-04-27T18:51:40.508Z,79.00
2019-04-27T18:56:45.571Z,79.00
2019-04-27T19:01:50.684Z,79.90
2019-04-27T19:06:55.757Z,78.20
2019-04-27T19:12:00.736Z,79.30
2019-04-27T19:17:06.028Z,83.80
2019-04-27T19:22:11.147Z,80.50
2019-04-27T19:27:27.905Z,80.20
2019-04-27T19:32:33.630Z,80.50
2019-04-27T19:37:39.785Z,85.30
2019-04-27T19:42:44.963Z,83.40
2019-04-27T19:47:50.082Z,83.90
2019-04-27T19:52:55.143Z,82.80
2019-04-27T19:58:01.555Z,81.50
2019-04-27T20:03:08.734Z,81.60
2019-04-27T20:08:16.235Z,82.60
2019-04-27T20:13:22.082Z,83.10
2019-04-27T20:18:28.743Z,85.40
2019-04-27T20:23:35.985Z,88.20
2019-04-27T20:28:43.375Z,83.50
2019-04-27T20:33:48.688Z,83.90
2019-04-27T20:38:53.751Z,82.30
2019-04-27T20:43:58.735Z,82.10
2019-04-27T20:49:05.396Z,81.70
2019-04-27T20:54:14.826Z,82.70
2019-04-27T20:59:21.947Z,82.80
2019-04-27T21:04:30.852Z,85.10
2019-04-27T21:09:36.038Z,82.30
2019-04-27T21:14:41.779Z,87.50
2019-04-27T21:19:46.718Z,84.50
2019-04-27T21:24:51.673Z,84.80
2019-04-27T21:29:56.664Z,82.50
2019-04-27T21:35:01.904Z,84.10
2019-04-27T21:40:14.871Z,83.60
2019-04-27T21:45:21.755Z,86.70
2019-04-27T21:50:26.915Z,81.10
2019-04-27T21:55:34.743Z,83.00
2019-04-27T22:00:42.799Z,81.10
2019-04-27T22:05:51.481Z,82.90
2019-04-27T22:10:56.774Z,83.00
2019-04-27T22:16:01.968Z,86.00
2019-04-27T22:21:07.167Z,83.80
2019-04-27T22:26:12.179Z,83.80
2019-04-27T22:31:17.226Z,84.10
2019-04-27T22:36:22.480Z,87.00
2019-04-27T22:41:31.255Z,83.60
2019-04-27T22:46:37.582Z,88.10
2019-04-27T22:51:43.120Z,91.80
2019-04-27T22:56:50.928Z,85.30
2019-04-27T23:02:12.355Z,82.90
2019-04-27T23:07:17.560Z,82.90
2019-04-27T23:12:23.107Z,82.50
2019-04-27T23:17:46.383Z,83.70
2019-04-27T23:22:51.638Z,82.60
2019-04-27T23:27:56.692Z,82.10
2019-04-27T23:33:01.663Z,81.80
2019-04-27T23:38:16.825Z,82.30
2019-04-27T23:43:13.655Z,83.70
2019-04-27T23:48:18.627Z,81.70
2019-04-27T23:53:25.408Z,83.90
2019-04-27T23:58:30.460Z,85.70
